createdAt,value
2023-07-07T00:00:43.078Z,16.42
2023-07-07T00:01:43.782Z,16.40
2023-07-07T00:02:43.809Z,16.39
2023-07-07T00:03:43.759Z,16.37
2023-07-07T00:04:43.717Z,16.35
2023-07-07T00:05:43.025Z,16.34
2023-07-07T00:06:43.044Z,16.33
2023-07-07T00:07:43.035Z,16.31
2023-07-07T00:08:42.992Z,16.28
2023-07-07T00:09:42.977Z,16.27
2023-07-07T00:10:42.969Z,16.27
2023-07-07T00:11:43.622Z,16.24
2023-07-07T00:12:43.640Z,16.23
2023-07-07T00:13:43.653Z,16.21
2023-07-07T00:14:43.619Z,16.20
2023-07-07T00:15:43.599Z,16.18
2023-07-07T00:16:43.667Z,16.18
2023-07-07T00:17:43.218Z,16.17
2023-07-07T00:18:43.565Z,16.16
2023-07-07T00:19:42.868Z,16.15
2023-07-07T00:20:43.547Z,16.14
2023-07-07T00:21:42.868Z,16.14
2023-07-07T00:22:42.847Z,16.12
2023-07-07T00:23:42.823Z,16.12
2023-07-07T00:24:43.503Z,16.11
2023-07-07T00:25:42.838Z,16.10
2023-07-07T00:26:42.802Z,16.10
2023-07-07T00:27:43.467Z,16.08
2023-07-07T00:28:42.782Z,16.07
2023-07-07T00:29:43.456Z,16.07
2023-07-07T00:30:43.484Z,16.06
2023-07-07T00:31:42.743Z,16.06
2023-07-07T00:32:43.451Z,16.05
2023-07-07T00:33:43.412Z,16.04
2023-07-07T00:34:43.380Z,16.03
2023-07-07T00:35:42.722Z,16.03
2023-07-07T00:36:43.376Z,16.02
2023-07-07T00:37:43.365Z,16.01
2023-07-07T00:38:43.354Z,16.00
2023-07-07T00:39:43.324Z,15.98
2023-07-07T00:40:43.364Z,15.97
2023-07-07T00:41:43.319Z,15.96
2023-07-07T00:42:43.316Z,15.95
2023-07-07T00:43:43.300Z,15.93
2023-07-07T00:44:42.617Z,15.92
2023-07-07T00:45:43.280Z,15.91
2023-07-07T00:46:42.671Z,15.91
2023-07-07T00:47:45.092Z,15.90
2023-07-07T00:48:42.583Z,15.89
2023-07-07T00:49:45.002Z,15.88
2023-07-07T00:50:43.226Z,15.87
2023-07-07T00:51:42.545Z,15.85
2023-07-07T00:52:43.205Z,15.84
2023-07-07T00:53:42.524Z,15.83
2023-07-07T00:54:43.180Z,15.82
2023-07-07T00:55:43.163Z,15.80
2023-07-07T00:56:43.150Z,15.79
2023-07-07T00:57:42.486Z,15.77
2023-07-07T00:58:42.483Z,15.75
2023-07-07T00:59:42.441Z,15.74
2023-07-07T01:00:43.183Z,15.70
2023-07-07T01:01:43.202Z,15.69
2023-07-07T01:02:43.169Z,15.66
2023-07-07T01:03:43.068Z,15.64
2023-07-07T01:04:42.430Z,15.62
2023-07-07T01:05:43.069Z,15.61
2023-07-07T01:06:43.050Z,15.59
2023-07-07T01:07:43.027Z,15.58
2023-07-07T01:08:42.337Z,15.56
2023-07-07T01:09:42.338Z,15.56
2023-07-07T01:10:43.001Z,15.53
2023-07-07T01:11:42.294Z,15.53
2023-07-07T01:12:42.962Z,15.51
2023-07-07T01:13:43.037Z,15.50
2023-07-07T01:14:42.964Z,15.49
2023-07-07T01:15:42.970Z,15.47
2023-07-07T01:16:42.282Z,15.47
2023-07-07T01:17:42.980Z,15.46
2023-07-07T01:18:43.177Z,15.46
2023-07-07T01:19:42.211Z,15.45
2023-07-07T01:20:42.214Z,15.45
2023-07-07T01:21:42.229Z,15.43
2023-07-07T01:22:42.890Z,15.43
2023-07-07T01:23:42.858Z,15.42
2023-07-07T01:24:42.845Z,15.40
2023-07-07T01:25:42.148Z,15.40
2023-07-07T01:26:42.213Z,15.39
2023-07-07T01:27:42.819Z,15.37
2023-07-07T01:28:42.807Z,15.35
2023-07-07T01:29:42.120Z,15.34
2023-07-07T01:30:42.767Z,15.32
2023-07-07T01:31:42.804Z,15.31
2023-07-07T01:32:42.115Z,15.30
2023-07-07T01:33:42.075Z,15.28
2023-07-07T01:34:42.053Z,15.28
2023-07-07T01:35:42.058Z,15.27
2023-07-07T01:36:42.036Z,15.26
2023-07-07T01:37:42.042Z,15.23
2023-07-07T01:38:42.012Z,15.22
2023-07-07T01:39:42.690Z,15.21
2023-07-07T01:40:41.999Z,15.19
2023-07-07T01:41:42.663Z,15.19
2023-07-07T01:42:42.649Z,15.17
2023-07-07T01:43:42.641Z,15.17
2023-07-07T01:44:41.975Z,15.15
2023-07-07T01:45:42.610Z,15.14
2023-07-07T01:46:42.797Z,15.13
2023-07-07T01:47:42.667Z,15.11
2023-07-07T01:48:42.590Z,15.10
2023-07-07T01:49:42.564Z,15.09
2023-07-07T01:50:41.902Z,15.08
2023-07-07T01:51:41.898Z,15.08
2023-07-07T01:52:41.866Z,15.07
2023-07-07T01:53:42.540Z,15.07
2023-07-07T01:54:41.858Z,15.06
2023-07-07T01:55:41.841Z,15.05
2023-07-07T01:56:42.506Z,15.05
2023-07-07T01:57:42.543Z,15.03
2023-07-07T01:58:41.811Z,15.03
2023-07-07T01:59:42.454Z,15.03
2023-07-07T02:00:42.476Z,15.02
2023-07-07T02:01:41.803Z,15.01
2023-07-07T02:02:41.786Z,15.00
2023-07-07T02:03:41.792Z,15.00
2023-07-07T02:04:42.537Z,15.00
2023-07-07T02:05:42.410Z,14.99
2023-07-07T02:06:42.411Z,14.98
2023-07-07T02:07:41.701Z,14.98
2023-07-07T02:08:41.713Z,14.97
2023-07-07T02:09:42.368Z,14.97
2023-07-07T02:10:42.384Z,14.97
2023-07-07T02:11:42.346Z,14.95
2023-07-07T02:12:42.322Z,14.96
2023-07-07T02:13:41.704Z,14.95
2023-07-07T02:14:42.315Z,14.96
2023-07-07T02:15:42.301Z,14.95
2023-07-07T02:16:42.288Z,14.95
2023-07-07T02:17:42.313Z,14.94
2023-07-07T02:18:42.285Z,14.93
2023-07-07T02:19:42.258Z,14.92
2023-07-07T02:20:42.266Z,14.92
2023-07-07T02:21:41.550Z,14.92
2023-07-07T02:22:42.221Z,14.91
2023-07-07T02:23:42.469Z,14.91
2023-07-07T02:24:42.208Z,14.89
2023-07-07T02:25:41.536Z,14.86
2023-07-07T02:26:42.178Z,14.85
2023-07-07T02:27:42.173Z,14.84
2023-07-07T02:28:42.163Z,14.83
2023-07-07T02:29:41.469Z,14.82
2023-07-07T02:30:41.455Z,14.81
2023-07-07T02:31:41.530Z,14.80
2023-07-07T02:32:41.462Z,14.80
2023-07-07T02:33:41.441Z,14.79
2023-07-07T02:34:42.098Z,14.78
2023-07-07T02:35:42.078Z,14.77
2023-07-07T02:36:41.409Z,14.75
2023-07-07T02:37:42.136Z,14.74
2023-07-07T02:38:41.375Z,14.73
2023-07-07T02:39:42.093Z,14.72
2023-07-07T02:40:42.023Z,14.71
2023-07-07T02:41:41.360Z,14.70
2023-07-07T02:42:41.337Z,14.70
2023-07-07T02:43:42.004Z,14.68
2023-07-07T02:44:41.300Z,14.68
2023-07-07T02:45:41.963Z,14.67
2023-07-07T02:46:41.314Z,14.66
2023-07-07T02:47:41.986Z,14.65
2023-07-07T02:48:41.955Z,14.65
2023-07-07T02:49:41.947Z,14.63
2023-07-07T02:50:41.909Z,14.63
2023-07-07T02:51:43.682Z,14.62
2023-07-07T02:52:41.226Z,14.61
2023-07-07T02:53:41.245Z,14.59
2023-07-07T02:54:41.221Z,14.59
2023-07-07T02:55:41.865Z,14.58
2023-07-07T02:56:41.865Z,14.57
2023-07-07T02:57:41.166Z,14.58
2023-07-07T02:58:41.169Z,14.58
2023-07-07T02:59:41.821Z,14.56
2023-07-07T03:00:41.199Z,14.55
2023-07-07T03:01:41.873Z,14.54
2023-07-07T03:02:41.825Z,14.53
2023-07-07T03:03:41.868Z,14.52
2023-07-07T03:04:41.768Z,14.51
2023-07-07T03:05:41.079Z,14.51
2023-07-07T03:06:41.754Z,14.50
2023-07-07T03:07:41.744Z,14.50
2023-07-07T03:08:41.732Z,14.49
2023-07-07T03:09:41.704Z,14.48
2023-07-07T03:10:41.040Z,14.48
2023-07-07T03:11:41.014Z,14.48
2023-07-07T03:12:41.012Z,14.46
2023-07-07T03:13:41.023Z,14.45
2023-07-07T03:14:41.669Z,14.45
2023-07-07T03:15:41.923Z,14.45
2023-07-07T03:16:41.715Z,14.43
2023-07-07T03:17:41.748Z,14.44
2023-07-07T03:18:41.679Z,14.44
2023-07-07T03:19:41.619Z,14.44
2023-07-07T03:20:41.666Z,14.45
2023-07-07T03:21:41.600Z,14.45
2023-07-07T03:22:40.913Z,14.45
2023-07-07T03:23:41.563Z,14.46
2023-07-07T03:24:40.884Z,14.46
2023-07-07T03:25:41.554Z,14.47
2023-07-07T03:26:40.860Z,14.49
2023-07-07T03:27:41.513Z,14.51
2023-07-07T03:28:41.796Z,14.52
2023-07-07T03:29:41.531Z,14.53
2023-07-07T03:30:41.518Z,14.54
2023-07-07T03:31:41.507Z,14.55
2023-07-07T03:32:41.524Z,14.58
2023-07-07T03:33:41.464Z,14.58
2023-07-07T03:34:41.454Z,14.59
2023-07-07T03:35:41.453Z,14.61
2023-07-07T03:36:41.417Z,14.63
2023-07-07T03:37:41.421Z,14.65
2023-07-07T03:38:41.411Z,14.67
2023-07-07T03:39:41.401Z,14.69
2023-07-07T03:40:41.393Z,14.73
2023-07-07T03:41:41.359Z,14.77
2023-07-07T03:42:41.365Z,14.82
2023-07-07T03:43:41.359Z,14.88
2023-07-07T03:44:41.350Z,14.93
2023-07-07T03:45:41.321Z,14.98
2023-07-07T03:46:41.402Z,15.03
2023-07-07T03:47:41.356Z,15.08
2023-07-07T03:48:41.333Z,15.13
2023-07-07T03:49:41.302Z,15.17
2023-07-07T03:50:41.263Z,15.22
2023-07-07T03:51:41.268Z,15.27
2023-07-07T03:52:41.257Z,15.30
2023-07-07T03:53:41.246Z,15.34
2023-07-07T03:54:41.244Z,15.39
2023-07-07T03:55:41.205Z,15.41
2023-07-07T03:56:41.214Z,15.45
2023-07-07T03:57:41.208Z,15.48
2023-07-07T03:58:41.194Z,15.52
2023-07-07T03:59:41.181Z,15.54
2023-07-07T04:00:41.158Z,15.57
2023-07-07T04:01:41.161Z,15.61
2023-07-07T04:02:41.217Z,15.65
2023-07-07T04:03:42.338Z,15.70
2023-07-07T04:04:41.256Z,15.75
2023-07-07T04:05:42.877Z,15.81
2023-07-07T04:06:41.112Z,15.87
2023-07-07T04:07:41.096Z,15.93
2023-07-07T04:08:41.091Z,15.99
2023-07-07T04:09:41.370Z,16.07
2023-07-07T04:10:41.066Z,16.14
2023-07-07T04:11:41.056Z,16.22
2023-07-07T04:12:41.049Z,16.28
2023-07-07T04:13:41.061Z,16.36
2023-07-07T04:14:41.000Z,16.46
2023-07-07T04:15:41.021Z,16.55
2023-07-07T04:16:41.036Z,16.67
2023-07-07T04:17:41.028Z,16.83
2023-07-07T04:18:40.968Z,17.01
2023-07-07T04:19:40.992Z,17.24
2023-07-07T04:20:40.963Z,17.59
2023-07-07T04:21:40.950Z,18.00
2023-07-07T04:22:40.937Z,18.40
2023-07-07T04:23:40.267Z,18.82
2023-07-07T04:24:40.917Z,19.24
2023-07-07T04:25:40.920Z,19.69
2023-07-07T04:26:40.244Z,20.13
2023-07-07T04:27:40.866Z,20.58
2023-07-07T04:28:40.208Z,20.99
2023-07-07T04:29:40.860Z,21.40
2023-07-07T04:30:40.860Z,21.82
2023-07-07T04:31:40.854Z,22.20
2023-07-07T04:32:40.263Z,22.59
2023-07-07T04:33:41.076Z,22.97
2023-07-07T04:34:40.806Z,23.35
2023-07-07T04:35:40.793Z,23.72
2023-07-07T04:36:42.396Z,24.06
2023-07-07T04:37:40.767Z,24.38
2023-07-07T04:38:40.762Z,24.68
2023-07-07T04:39:40.071Z,24.96
2023-07-07T04:40:40.738Z,25.19
2023-07-07T04:41:40.080Z,25.43
2023-07-07T04:42:40.702Z,25.67
2023-07-07T04:43:40.096Z,25.87
2023-07-07T04:44:40.696Z,26.05
2023-07-07T04:45:40.683Z,26.21
2023-07-07T04:46:40.747Z,26.35
2023-07-07T04:47:40.002Z,26.51
2023-07-07T04:48:39.966Z,26.74
2023-07-07T04:49:39.958Z,27.00
2023-07-07T04:50:40.628Z,27.20
2023-07-07T04:51:40.600Z,27.31
2023-07-07T04:52:40.628Z,27.48
2023-07-07T04:53:40.682Z,27.68
2023-07-07T04:54:39.917Z,27.86
2023-07-07T04:55:39.907Z,27.93
2023-07-07T04:56:40.551Z,27.91
2023-07-07T04:57:40.649Z,27.97
2023-07-07T04:58:40.575Z,28.04
2023-07-07T04:59:40.569Z,28.10
2023-07-07T05:00:40.540Z,28.12
2023-07-07T05:01:39.899Z,28.06
2023-07-07T05:02:40.635Z,27.99
2023-07-07T05:03:39.881Z,28.06
2023-07-07T05:04:39.832Z,28.21
2023-07-07T05:05:40.472Z,28.46
2023-07-07T05:06:40.477Z,28.75
2023-07-07T05:07:39.771Z,29.07
2023-07-07T05:08:40.444Z,29.40
2023-07-07T05:09:40.415Z,29.72
2023-07-07T05:10:40.404Z,30.06
2023-07-07T05:11:39.730Z,30.39
2023-07-07T05:12:39.729Z,30.72
2023-07-07T05:13:39.840Z,31.05
2023-07-07T05:14:39.744Z,31.34
2023-07-07T05:15:40.363Z,31.61
2023-07-07T05:16:40.417Z,31.88
2023-07-07T05:17:39.711Z,32.06
2023-07-07T05:18:40.345Z,32.13
2023-07-07T05:19:39.651Z,32.25
2023-07-07T05:20:39.619Z,32.25
2023-07-07T05:21:40.319Z,32.23
2023-07-07T05:22:40.289Z,32.36
2023-07-07T05:23:40.265Z,32.55
2023-07-07T05:24:39.611Z,32.77
2023-07-07T05:25:39.569Z,32.97
2023-07-07T05:26:40.244Z,33.15
2023-07-07T05:27:39.551Z,33.33
2023-07-07T05:28:39.571Z,33.45
2023-07-07T05:29:39.541Z,33.46
2023-07-07T05:30:40.201Z,33.47
2023-07-07T05:31:39.546Z,33.54
2023-07-07T05:32:40.235Z,33.61
2023-07-07T05:33:40.160Z,33.65
2023-07-07T05:34:40.160Z,33.66
2023-07-07T05:35:40.156Z,33.64
2023-07-07T05:36:40.146Z,33.61
2023-07-07T05:37:40.111Z,33.52
2023-07-07T05:38:40.113Z,33.49
2023-07-07T05:39:39.433Z,33.36
2023-07-07T05:40:39.415Z,33.21
2023-07-07T05:41:39.414Z,33.21
2023-07-07T05:42:40.073Z,33.34
2023-07-07T05:43:39.394Z,33.54
2023-07-07T05:44:39.367Z,33.79
2023-07-07T05:45:39.448Z,34.03
2023-07-07T05:46:39.532Z,34.24
2023-07-07T05:47:39.390Z,34.47
2023-07-07T05:48:39.322Z,34.67
2023-07-07T05:49:40.040Z,34.88
2023-07-07T05:50:39.304Z,35.05
2023-07-07T05:51:39.352Z,35.08
2023-07-07T05:52:39.320Z,35.07
2023-07-07T05:53:39.269Z,35.10
2023-07-07T05:54:39.274Z,35.15
2023-07-07T05:55:39.953Z,35.24
2023-07-07T05:56:39.267Z,35.34
2023-07-07T05:57:39.917Z,35.44
2023-07-07T05:58:41.656Z,35.59
2023-07-07T05:59:39.239Z,35.76
2023-07-07T06:00:39.207Z,35.97
2023-07-07T06:01:40.010Z,36.21
2023-07-07T06:02:39.873Z,36.43
2023-07-07T06:03:39.878Z,36.67
2023-07-07T06:04:39.841Z,36.95
2023-07-07T06:05:39.148Z,37.21
2023-07-07T06:06:39.813Z,37.48
2023-07-07T06:07:39.808Z,37.65
2023-07-07T06:08:41.588Z,37.81
2023-07-07T06:09:39.791Z,37.94
2023-07-07T06:10:39.158Z,38.12
2023-07-07T06:11:39.776Z,38.33
2023-07-07T06:12:39.761Z,38.54
2023-07-07T06:13:39.798Z,38.69
2023-07-07T06:14:39.752Z,38.89
2023-07-07T06:15:39.719Z,39.05
2023-07-07T06:16:39.828Z,39.11
2023-07-07T06:17:39.756Z,39.10
2023-07-07T06:18:38.991Z,39.02
2023-07-07T06:19:39.669Z,38.97
2023-07-07T06:20:39.682Z,38.98
2023-07-07T06:21:38.963Z,39.05
2023-07-07T06:22:38.971Z,39.14
2023-07-07T06:23:39.663Z,39.18
2023-07-07T06:24:39.617Z,39.12
2023-07-07T06:25:38.933Z,39.08
2023-07-07T06:26:39.619Z,39.13
2023-07-07T06:27:39.594Z,39.16
2023-07-07T06:28:38.897Z,39.11
2023-07-07T06:29:38.907Z,39.05
2023-07-07T06:30:38.879Z,39.02
2023-07-07T06:31:38.940Z,39.00
2023-07-07T06:32:39.560Z,39.02
2023-07-07T06:33:39.514Z,39.16
2023-07-07T06:34:38.868Z,39.37
2023-07-07T06:35:38.837Z,39.65
2023-07-07T06:36:38.824Z,39.98
2023-07-07T06:37:38.815Z,40.33
2023-07-07T06:38:39.472Z,40.65
2023-07-07T06:39:38.822Z,40.93
2023-07-07T06:40:39.462Z,41.20
2023-07-07T06:41:39.449Z,41.44
2023-07-07T06:42:39.438Z,41.62
2023-07-07T06:43:39.432Z,41.71
2023-07-07T06:44:38.720Z,41.82
2023-07-07T06:45:39.418Z,41.96
2023-07-07T06:46:39.435Z,42.07
2023-07-07T06:47:39.443Z,42.22
2023-07-07T06:48:39.360Z,42.36
2023-07-07T06:49:39.368Z,42.41
2023-07-07T06:50:39.372Z,42.40
2023-07-07T06:51:38.683Z,42.32
2023-07-07T06:52:38.667Z,42.29
2023-07-07T06:53:39.325Z,42.27
2023-07-07T06:54:38.664Z,42.27
2023-07-07T06:55:39.335Z,42.23
2023-07-07T06:56:39.296Z,42.30
2023-07-07T06:57:39.279Z,42.44
2023-07-07T06:58:38.620Z,42.52
2023-07-07T06:59:39.272Z,42.70
2023-07-07T07:00:39.275Z,42.98
2023-07-07T07:01:39.273Z,43.28
2023-07-07T07:02:38.585Z,43.58
2023-07-07T07:03:38.577Z,43.82
2023-07-07T07:04:39.214Z,44.07
2023-07-07T07:05:39.200Z,44.26
2023-07-07T07:06:39.170Z,44.49
2023-07-07T07:07:38.559Z,44.73
2023-07-07T07:08:39.182Z,44.94
2023-07-07T07:09:39.161Z,45.11
2023-07-07T07:10:39.159Z,45.26
2023-07-07T07:11:39.123Z,45.45
2023-07-07T07:12:39.128Z,45.72
2023-07-07T07:13:39.143Z,45.95
2023-07-07T07:14:39.136Z,46.13
2023-07-07T07:15:39.102Z,46.20
2023-07-07T07:16:39.106Z,46.20
2023-07-07T07:17:39.147Z,46.18
2023-07-07T07:18:39.065Z,46.11
2023-07-07T07:19:39.057Z,46.05
2023-07-07T07:20:38.397Z,46.15
2023-07-07T07:21:39.035Z,46.39
2023-07-07T07:22:38.340Z,46.64
2023-07-07T07:23:39.024Z,46.86
2023-07-07T07:24:38.323Z,46.89
2023-07-07T07:25:38.976Z,47.00
2023-07-07T07:26:38.314Z,47.22
2023-07-07T07:27:38.974Z,47.48
2023-07-07T07:28:38.965Z,47.74
2023-07-07T07:29:38.957Z,48.00
2023-07-07T07:30:39.002Z,48.23
2023-07-07T07:31:39.021Z,48.46
2023-07-07T07:32:38.259Z,48.62
2023-07-07T07:33:38.259Z,48.63
2023-07-07T07:34:39.145Z,48.66
2023-07-07T07:35:38.873Z,48.63
2023-07-07T07:36:38.894Z,48.55
2023-07-07T07:37:39.096Z,48.65
2023-07-07T07:38:38.871Z,48.82
2023-07-07T07:39:38.204Z,48.80
2023-07-07T07:40:38.167Z,48.66
2023-07-07T07:41:38.833Z,48.42
2023-07-07T07:42:38.820Z,48.34
2023-07-07T07:43:39.039Z,48.47
2023-07-07T07:44:38.785Z,48.62
2023-07-07T07:45:38.796Z,48.76
2023-07-07T07:46:38.132Z,48.87
2023-07-07T07:47:38.892Z,48.93
2023-07-07T07:48:38.748Z,49.05
2023-07-07T07:49:38.091Z,49.15
2023-07-07T07:50:38.741Z,49.20
2023-07-07T07:51:41.065Z,49.25
2023-07-07T07:52:38.724Z,49.29
2023-07-07T07:53:38.693Z,49.33
2023-07-07T07:54:38.042Z,49.34
2023-07-07T07:55:38.007Z,49.33
2023-07-07T07:56:37.997Z,49.31
2023-07-07T07:57:38.677Z,49.29
2023-07-07T07:58:38.655Z,49.31
2023-07-07T07:59:37.966Z,49.34
2023-07-07T08:00:38.639Z,49.36
2023-07-07T08:01:37.999Z,49.34
2023-07-07T08:02:38.612Z,49.30
2023-07-07T08:03:38.058Z,49.24
2023-07-07T08:04:38.597Z,49.22
2023-07-07T08:05:38.590Z,49.20
2023-07-07T08:06:38.612Z,49.17
2023-07-07T08:07:38.555Z,49.12
2023-07-07T08:08:37.895Z,49.10
2023-07-07T08:09:37.900Z,49.10
2023-07-07T08:10:38.546Z,48.95
2023-07-07T08:11:37.860Z,48.75
2023-07-07T08:12:38.525Z,48.50
2023-07-07T08:13:40.818Z,48.16
2023-07-07T08:14:37.800Z,47.78
2023-07-07T08:15:38.488Z,47.42
2023-07-07T08:16:38.492Z,47.25
2023-07-07T08:17:38.487Z,47.16
2023-07-07T08:18:38.494Z,47.15
2023-07-07T08:19:38.460Z,47.19
2023-07-07T08:20:37.758Z,47.16
2023-07-07T08:21:37.765Z,47.04
2023-07-07T08:22:38.418Z,46.87
2023-07-07T08:23:37.712Z,46.77
2023-07-07T08:24:38.431Z,46.72
2023-07-07T08:25:37.723Z,46.73
2023-07-07T08:26:40.194Z,46.63
2023-07-07T08:27:39.514Z,46.33
2023-07-07T08:28:48.851Z,46.08
2023-07-07T08:29:38.647Z,45.87
2023-07-07T08:30:38.354Z,45.69
2023-07-07T08:31:37.628Z,45.62
2023-07-07T08:32:38.330Z,45.50
2023-07-07T08:33:41.079Z,45.42
2023-07-07T08:34:53.816Z,45.38
2023-07-07T08:35:38.606Z,45.33
2023-07-07T08:36:38.277Z,45.28
2023-07-07T08:37:37.575Z,45.24
2023-07-07T08:38:37.567Z,45.24
2023-07-07T08:39:38.223Z,45.25
2023-07-07T08:40:38.212Z,45.27
2023-07-07T08:41:38.215Z,45.28
2023-07-07T08:42:38.202Z,45.25
2023-07-07T08:43:37.523Z,45.18
2023-07-07T08:44:37.519Z,45.16
2023-07-07T08:45:38.173Z,45.02
2023-07-07T08:46:38.215Z,44.75
2023-07-07T08:47:38.177Z,44.37
2023-07-07T08:48:38.122Z,43.99
2023-07-07T08:49:37.460Z,43.68
2023-07-07T08:50:38.129Z,43.48
2023-07-07T08:51:37.444Z,43.38
2023-07-07T08:52:38.099Z,43.32
2023-07-07T08:53:38.072Z,43.29
2023-07-07T08:54:40.224Z,43.27
2023-07-07T08:55:37.403Z,43.34
2023-07-07T08:56:37.382Z,43.45
2023-07-07T08:57:38.051Z,43.56
2023-07-07T08:58:38.263Z,43.65
2023-07-07T08:59:38.059Z,43.62
2023-07-07T09:00:38.020Z,43.50
2023-07-07T09:01:38.316Z,43.39
2023-07-07T09:02:38.001Z,43.27
2023-07-07T09:03:37.353Z,43.21
2023-07-07T09:04:37.393Z,43.18
2023-07-07T09:05:37.976Z,43.16
2023-07-07T09:06:37.953Z,43.15
2023-07-07T09:07:37.927Z,43.18
2023-07-07T09:08:49.469Z,43.23
2023-07-07T09:09:38.926Z,43.32
2023-07-07T09:10:37.921Z,43.40
2023-07-07T09:11:37.916Z,43.35
2023-07-07T09:12:37.878Z,43.27
2023-07-07T09:13:37.310Z,43.13
2023-07-07T09:14:37.184Z,42.93
2023-07-07T09:15:37.192Z,42.75
2023-07-07T09:16:37.864Z,42.59
2023-07-07T09:17:38.168Z,42.37
2023-07-07T09:18:37.149Z,42.12
2023-07-07T09:19:37.129Z,41.97
2023-07-07T09:20:37.149Z,41.94
2023-07-07T09:21:37.127Z,42.00
2023-07-07T09:22:37.101Z,42.11
2023-07-07T09:23:37.780Z,42.23
2023-07-07T09:24:37.774Z,42.23
2023-07-07T09:25:49.799Z,42.13
2023-07-07T09:26:38.742Z,41.93
2023-07-07T09:27:37.067Z,41.77
2023-07-07T09:28:37.735Z,41.66
2023-07-07T09:29:37.723Z,41.55
2023-07-07T09:30:37.694Z,41.42
2023-07-07T09:31:37.032Z,41.31
2023-07-07T09:32:37.720Z,41.21
2023-07-07T09:33:39.436Z,41.20
2023-07-07T09:34:37.670Z,41.19
2023-07-07T09:35:37.645Z,41.15
2023-07-07T09:36:37.653Z,41.18
2023-07-07T09:37:36.960Z,41.21
2023-07-07T09:38:37.636Z,41.21
2023-07-07T09:39:37.601Z,41.07
2023-07-07T09:40:37.598Z,40.93
2023-07-07T09:41:37.604Z,40.82
2023-07-07T09:42:37.603Z,40.72
2023-07-07T09:43:45.605Z,40.66
2023-07-07T09:44:38.579Z,40.60
2023-07-07T09:45:36.886Z,40.59
2023-07-07T09:46:37.611Z,40.63
2023-07-07T09:47:39.341Z,40.72
2023-07-07T09:48:36.841Z,40.88
2023-07-07T09:49:36.852Z,41.11
2023-07-07T09:50:37.513Z,41.36
2023-07-07T09:51:36.815Z,41.63
2023-07-07T09:52:36.803Z,41.91
2023-07-07T09:53:46.794Z,42.21
2023-07-07T09:54:38.458Z,42.47
2023-07-07T09:55:38.714Z,42.67
2023-07-07T09:56:36.756Z,42.79
2023-07-07T09:57:36.749Z,42.86
2023-07-07T09:58:36.806Z,42.89
2023-07-07T09:59:37.416Z,42.94
2023-07-07T10:00:45.474Z,43.02
2023-07-07T10:01:37.772Z,43.08
2023-07-07T10:02:37.418Z,43.12
2023-07-07T10:03:36.721Z,43.18
2023-07-07T10:04:37.433Z,43.29
2023-07-07T10:05:37.372Z,43.37
2023-07-07T10:06:36.669Z,43.44
2023-07-07T10:07:36.693Z,43.63
2023-07-07T10:08:36.665Z,43.94
2023-07-07T10:09:36.659Z,44.25
2023-07-07T10:10:36.619Z,44.53
2023-07-07T10:12:38.044Z,45.03
2023-07-07T10:13:36.633Z,45.22
2023-07-07T10:14:37.275Z,45.44
2023-07-07T10:15:37.262Z,45.69
2023-07-07T10:16:37.303Z,46.00
2023-07-07T10:17:36.636Z,46.33
2023-07-07T10:18:45.363Z,46.70
2023-07-07T10:19:38.223Z,47.05
2023-07-07T10:20:36.537Z,47.41
2023-07-07T10:21:37.197Z,47.78
2023-07-07T10:22:36.537Z,48.17
2023-07-07T10:23:36.510Z,48.43
2023-07-07T10:24:36.486Z,48.48
2023-07-07T10:25:37.158Z,48.51
2023-07-07T10:26:36.490Z,48.62
2023-07-07T10:27:36.496Z,48.78
2023-07-07T10:28:37.698Z,49.02
2023-07-07T10:29:37.125Z,49.33
2023-07-07T10:30:37.132Z,49.68
2023-07-07T10:31:37.163Z,50.11
2023-07-07T10:32:37.144Z,50.54
2023-07-07T10:33:37.080Z,50.94
2023-07-07T10:34:37.067Z,51.16
2023-07-07T10:35:36.366Z,51.24
2023-07-07T10:36:37.029Z,51.31
2023-07-07T10:37:37.039Z,51.39
2023-07-07T10:38:41.979Z,51.53
2023-07-07T10:39:37.373Z,51.64
2023-07-07T10:40:37.001Z,51.70
2023-07-07T10:41:36.340Z,51.72
2023-07-07T10:42:36.983Z,51.73
2023-07-07T10:43:36.307Z,51.80
2023-07-07T10:44:36.299Z,51.87
2023-07-07T10:45:36.973Z,51.89
2023-07-07T10:46:36.293Z,51.90
2023-07-07T10:47:37.036Z,51.90
2023-07-07T10:48:36.930Z,51.88
2023-07-07T10:49:36.308Z,51.83
2023-07-07T10:50:36.268Z,51.70
2023-07-07T10:51:36.241Z,51.38
2023-07-07T10:53:36.171Z,49.82
2023-07-07T10:54:36.750Z,48.35
2023-07-07T10:55:36.844Z,46.57
2023-07-07T10:56:36.845Z,44.72
2023-07-07T10:57:36.835Z,42.91
2023-07-07T10:58:36.825Z,41.25
2023-07-07T11:00:38.831Z,38.75
2023-07-07T11:01:36.795Z,37.88
2023-07-07T11:02:36.789Z,37.17
2023-07-07T11:03:36.825Z,36.59
2023-07-07T11:04:36.793Z,36.09
2023-07-07T11:05:37.856Z,35.65
2023-07-07T11:06:36.083Z,35.26
2023-07-07T11:07:36.061Z,34.88
2023-07-07T11:08:36.050Z,34.55
2023-07-07T11:09:36.066Z,34.23
2023-07-07T11:10:36.167Z,33.91
2023-07-07T11:11:36.004Z,33.57
2023-07-07T11:12:36.020Z,33.25
2023-07-07T11:13:36.056Z,32.88
2023-07-07T11:14:36.668Z,32.51
2023-07-07T11:15:36.649Z,32.16
2023-07-07T11:16:36.027Z,31.89
2023-07-07T11:17:36.012Z,31.65
2023-07-07T11:19:36.606Z,31.30
2023-07-07T11:20:36.602Z,31.14
2023-07-07T11:21:36.587Z,30.97
2023-07-07T11:22:36.560Z,30.82
2023-07-07T11:23:35.899Z,30.72
2023-07-07T11:24:56.330Z,30.67
2023-07-07T11:25:37.611Z,30.63
2023-07-07T11:26:35.862Z,30.62
2023-07-07T11:27:35.936Z,30.62
2023-07-07T11:28:35.817Z,30.62
2023-07-07T11:29:35.803Z,30.64
2023-07-07T11:30:36.502Z,30.64
2023-07-07T11:31:35.828Z,30.62
2023-07-07T11:32:35.845Z,30.56
2023-07-07T11:33:36.473Z,30.49
2023-07-07T11:34:36.476Z,30.43
2023-07-07T11:35:36.463Z,30.39
2023-07-07T11:36:36.428Z,30.36
2023-07-07T11:37:35.753Z,30.34
2023-07-07T11:38:35.724Z,30.31
2023-07-07T11:39:35.726Z,30.30
2023-07-07T11:40:36.419Z,30.29
2023-07-07T11:41:37.649Z,30.25
2023-07-07T11:42:35.690Z,30.17
2023-07-07T11:43:36.381Z,30.08
2023-07-07T11:44:36.371Z,30.02
2023-07-07T11:45:36.336Z,29.96
2023-07-07T11:46:35.688Z,29.94
2023-07-07T11:47:35.629Z,29.93
2023-07-07T11:48:36.576Z,29.92
2023-07-07T11:49:36.327Z,29.94
2023-07-07T11:50:36.269Z,29.98
2023-07-07T11:51:36.275Z,30.05
2023-07-07T11:52:36.269Z,30.10
2023-07-07T11:53:36.253Z,30.16
2023-07-07T11:54:36.243Z,30.23
2023-07-07T11:55:35.564Z,30.30
2023-07-07T11:56:36.241Z,30.34
2023-07-07T11:57:37.402Z,30.35
2023-07-07T11:58:36.195Z,30.35
2023-07-07T11:59:36.171Z,30.37
2023-07-07T12:00:35.501Z,30.40
2023-07-07T12:01:36.163Z,30.44
2023-07-07T12:02:35.487Z,30.48
2023-07-07T12:03:35.788Z,30.53
2023-07-07T12:04:37.112Z,30.54
2023-07-07T12:05:35.722Z,30.57
2023-07-07T12:06:35.445Z,30.62
2023-07-07T12:07:35.421Z,30.68
2023-07-07T12:08:36.102Z,30.72
2023-07-07T12:09:36.128Z,30.73
2023-07-07T12:10:35.377Z,30.74
2023-07-07T12:11:35.380Z,30.75
2023-07-07T12:12:35.362Z,30.76
2023-07-07T12:13:36.067Z,30.77
2023-07-07T12:14:35.419Z,30.79
2023-07-07T12:15:36.024Z,30.81
2023-07-07T12:16:35.389Z,30.83
2023-07-07T12:17:35.360Z,30.86
2023-07-07T12:18:35.357Z,30.91
2023-07-07T12:19:36.030Z,30.94
2023-07-07T12:20:36.782Z,30.98
2023-07-07T12:21:35.261Z,31.02
2023-07-07T12:22:35.963Z,31.06
2023-07-07T12:23:35.928Z,31.09
2023-07-07T12:24:35.929Z,31.11
2023-07-07T12:25:35.925Z,31.12
2023-07-07T12:26:37.087Z,31.11
2023-07-07T12:27:35.896Z,31.08
2023-07-07T12:28:35.885Z,31.04
2023-07-07T12:29:35.206Z,30.98
2023-07-07T12:30:35.869Z,30.92
2023-07-07T12:31:35.889Z,30.85
2023-07-07T12:32:35.860Z,30.78
2023-07-07T12:33:35.146Z,30.71
2023-07-07T12:34:35.146Z,30.64
2023-07-07T12:35:35.819Z,30.57
2023-07-07T12:36:35.200Z,30.51
2023-07-07T12:37:35.796Z,30.47
2023-07-07T12:38:37.061Z,30.43
2023-07-07T12:39:35.783Z,30.39
2023-07-07T12:40:35.099Z,30.35
2023-07-07T12:41:35.755Z,30.32
2023-07-07T12:42:35.082Z,30.29
2023-07-07T12:43:35.063Z,30.26
2023-07-07T12:44:35.063Z,30.20
2023-07-07T12:45:35.722Z,30.15
2023-07-07T12:46:35.699Z,30.12
2023-07-07T12:47:35.048Z,30.10
2023-07-07T12:48:35.953Z,30.07
2023-07-07T12:49:35.685Z,30.07
2023-07-07T12:50:34.984Z,30.04
2023-07-07T12:51:35.632Z,30.03
2023-07-07T12:52:34.969Z,30.03
2023-07-07T12:53:34.975Z,30.04
2023-07-07T12:54:34.943Z,30.06
2023-07-07T12:55:35.593Z,30.06
2023-07-07T12:56:34.934Z,30.06